Time;durP1;ratioP1;P1;durP2;ratioP2;P2;SDS_P1;SDS_P2;PMS_P1;PMS_P2;Temp;Humidity;BMP_temperature;BMP_pressure;BME280_temperature;BME280_humidity;BME280_pressure;Samples;Min_cycle;Max_cycle;Signal;HPM_P1;HPM_P2
2023/06/20 00:01:02;;;;;;;10.40;6.47;;;20.10;60.80;;;;;;4929566;28;20452;-79
2023/06/20 00:03:29;;;;;;;11.00;6.60;;;20.10;60.90;;;;;;4944477;28;20565;-79
2023/06/20 00:05:56;;;;;;;10.13;6.60;;;20.10;61.20;;;;;;4928312;29;20056;-79
2023/06/20 00:08:23;;;;;;;10.30;6.55;;;20.10;61.40;;;;;;4928539;29;20056;-79
2023/06/20 00:10:49;;;;;;;10.40;6.88;;;20.10;61.40;;;;;;4928122;29;20052;-78
2023/06/20 00:13:18;;;;;;;12.03;6.87;;;20.00;61.70;;;;;;4942119;28;20056;-79
2023/06/20 00:15:45;;;;;;;9.85;6.55;;;20.00;62.00;;;;;;4929084;28;20056;-79
2023/06/20 00:18:12;;;;;;;10.85;6.22;;;20.00;61.70;;;;;;4930753;29;20156;-79
2023/06/20 00:20:39;;;;;;;10.68;6.72;;;20.00;62.20;;;;;;4942906;28;20049;-78
2023/06/20 00:23:06;;;;;;;11.32;6.85;;;20.00;62.10;;;;;;4924444;29;20056;-78
2023/06/20 00:25:33;;;;;;;13.00;6.87;;;20.00;62.20;;;;;;4945784;28;20068;-78
2023/06/20 00:28:02;;;;;;;11.50;6.93;;;19.90;62.50;;;;;;4931264;29;20063;-79
2023/06/20 00:30:30;;;;;;;14.10;7.60;;;19.90;62.50;;;;;;4928616;29;20502;-78
2023/06/20 00:32:58;;;;;;;11.85;7.20;;;19.90;62.80;;;;;;4930035;29;20124;-79
2023/06/20 00:35:25;;;;;;;11.90;6.95;;;19.90;62.70;;;;;;4933049;28;20048;-78
2023/06/20 00:37:52;;;;;;;13.20;7.03;;;19.90;62.90;;;;;;4931464;29;20055;-79
2023/06/20 00:40:19;;;;;;;10.93;7.00;;;19.80;62.70;;;;;;4931254;29;20048;-78
2023/06/20 00:42:47;;;;;;;10.80;6.43;;;19.80;63.00;;;;;;4931171;29;20056;-79
2023/06/20 00:45:28;;;;;;;11.85;6.45;;;19.80;63.20;;;;;;4932319;29;20060;-78
2023/06/20 00:47:57;;;;;;;10.85;6.50;;;19.70;62.80;;;;;;4945758;28;20079;-78
2023/06/20 00:50:27;;;;;;;12.07;6.70;;;19.70;63.40;;;;;;4927777;29;20055;-78
2023/06/20 00:52:59;;;;;;;11.73;6.60;;;19.70;63.20;;;;;;4921223;29;20496;-78
2023/06/20 00:55:27;;;;;;;10.52;6.47;;;19.70;63.60;;;;;;4923583;29;20092;-78
2023/06/20 00:57:57;;;;;;;9.00;6.10;;;19.70;63.50;;;;;;4930924;29;20052;-79
2023/06/20 01:00:25;;;;;;;9.70;5.97;;;19.70;63.30;;;;;;4931142;29;20805;-79
2023/06/20 01:02:54;;;;;;;10.30;6.27;;;19.70;63.60;;;;;;4946948;28;20155;-79
2023/06/20 01:05:27;;;;;;;11.10;5.95;;;19.70;63.90;;;;;;4929844;29;20060;-79
2023/06/20 01:08:03;;;;;;;13.27;6.32;;;19.70;63.80;;;;;;4932093;28;20048;-79
2023/06/20 01:10:42;;;;;;;10.15;6.05;;;19.70;63.80;;;;;;4930738;29;20507;-79
2023/06/20 01:13:21;;;;;;;11.20;6.20;;;19.60;63.80;;;;;;4930849;29;20056;-78
2023/06/20 01:15:59;;;;;;;9.57;5.37;;;19.60;64.20;;;;;;4914937;29;20045;-78
2023/06/20 01:18:36;;;;;;;10.48;6.03;;;19.60;64.00;;;;;;4931924;29;20052;-78
2023/06/20 01:21:10;;;;;;;9.95;6.28;;;19.50;63.70;;;;;;4914988;29;20052;-78
2023/06/20 01:23:44;;;;;;;10.38;6.00;;;19.50;64.20;;;;;;4945187;28;20153;-78
2023/06/20 01:26:18;;;;;;;10.40;6.18;;;19.50;64.00;;;;;;4930804;29;20152;-78
2023/06/20 01:28:50;;;;;;;11.00;6.37;;;19.50;64.20;;;;;;4914420;29;20541;-78
2023/06/20 01:31:22;;;;;;;10.20;6.05;;;19.50;64.60;;;;;;4914225;29;20541;-79
2023/06/20 01:33:52;;;;;;;10.82;5.65;;;19.50;64.70;;;;;;4914541;29;20083;-78
2023/06/20 01:36:22;;;;;;;11.25;6.18;;;19.50;64.80;;;;;;4915104;29;20514;-78
2023/06/20 01:38:55;;;;;;;10.35;6.45;;;19.40;64.70;;;;;;4945342;28;20052;-78
2023/06/20 01:41:24;;;;;;;11.43;6.50;;;19.40;64.50;;;;;;4930438;29;21090;-79
2023/06/20 01:43:56;;;;;;;11.13;6.30;;;19.40;64.40;;;;;;4930156;29;20598;-78
2023/06/20 01:46:24;;;;;;;8.68;6.20;;;19.40;64.60;;;;;;4930440;29;20063;-78
2023/06/20 01:48:52;;;;;;;9.88;6.00;;;19.40;64.60;;;;;;4930820;29;20070;-79
2023/06/20 01:51:20;;;;;;;10.60;6.47;;;19.40;64.40;;;;;;4931384;29;20048;-78
2023/06/20 01:53:51;;;;;;;10.97;6.47;;;19.40;64.40;;;;;;4914053;29;20467;-78
2023/06/20 01:56:18;;;;;;;11.35;6.70;;;19.40;64.60;;;;;;4912914;29;20144;-79
2023/06/20 01:58:47;;;;;;;11.50;6.75;;;19.40;64.60;;;;;;4930210;29;20044;-78
2023/06/20 02:01:15;;;;;;;12.98;6.80;;;19.40;64.70;;;;;;4930322;29;20052;-78
2023/06/20 02:03:44;;;;;;;11.38;7.07;;;19.40;64.70;;;;;;4945817;28;20056;-78
2023/06/20 02:06:13;;;;;;;11.77;6.80;;;19.30;65.10;;;;;;4928963;29;20060;-78
2023/06/20 02:08:41;;;;;;;11.57;6.72;;;19.30;65.30;;;;;;4914332;29;20111;-78
2023/06/20 02:11:10;;;;;;;13.25;7.43;;;19.30;65.80;;;;;;4928208;29;20139;-79
2023/06/20 02:13:37;;;;;;;10.30;7.22;;;19.30;65.90;;;;;;4927595;29;20421;-79
2023/06/20 02:16:08;;;;;;;11.52;7.55;;;19.30;65.50;;;;;;4928699;29;20044;-78
2023/06/20 02:18:38;;;;;;;14.60;7.60;;;19.30;65.90;;;;;;4928473;28;20044;-78
2023/06/20 02:21:07;;;;;;;12.23;7.68;;;19.30;66.10;;;;;;4929719;29;20052;-79
2023/06/20 02:23:36;;;;;;;10.77;7.35;;;19.30;65.90;;;;;;4930219;29;20052;-78
2023/06/20 02:26:07;;;;;;;11.70;7.38;;;19.30;65.90;;;;;;4914288;29;20527;-79
2023/06/20 02:28:39;;;;;;;12.82;7.72;;;19.30;66.00;;;;;;4931226;29;20116;-79
2023/06/20 02:31:10;;;;;;;15.10;7.93;;;19.30;66.20;;;;;;4912088;29;20060;-78
2023/06/20 02:33:41;;;;;;;13.48;7.57;;;19.30;66.40;;;;;;4929971;29;20052;-79
2023/06/20 02:36:10;;;;;;;36.22;10.05;;;19.30;66.60;;;;;;4914259;29;20812;-78
2023/06/20 02:38:37;;;;;;;15.55;8.43;;;19.30;66.70;;;;;;4930906;29;20052;-78
2023/06/20 02:41:05;;;;;;;13.13;7.82;;;19.30;66.70;;;;;;4928317;29;20527;-78
2023/06/20 02:43:32;;;;;;;12.13;7.80;;;19.30;66.60;;;;;;4929434;29;20048;-78
2023/06/20 02:46:11;;;;;;;13.98;8.30;;;19.30;66.90;;;;;;4930680;28;20056;-79
2023/06/20 02:48:44;;;;;;;14.52;8.15;;;19.30;66.80;;;;;;4927802;29;20143;-79
2023/06/20 02:51:16;;;;;;;13.32;8.02;;;19.30;66.90;;;;;;4929003;29;20056;-78
2023/06/20 02:53:50;;;;;;;12.68;7.90;;;19.20;67.30;;;;;;4929280;29;20103;-79
2023/06/20 02:56:17;;;;;;;13.13;8.63;;;19.20;67.30;;;;;;4944633;28;20064;-78
2023/06/20 02:58:47;;;;;;;14.65;8.73;;;19.20;67.40;;;;;;4930643;29;20048;-79
2023/06/20 03:01:23;;;;;;;13.43;8.95;;;19.20;67.90;;;;;;4912684;29;20911;-78
2023/06/20 03:03:52;;;;;;;14.90;9.07;;;19.20;67.80;;;;;;4913671;29;20059;-78
2023/06/20 03:06:26;;;;;;;13.68;8.73;;;19.10;68.10;;;;;;4927613;29;20112;-78
2023/06/20 03:08:56;;;;;;;14.60;9.20;;;19.10;68.20;;;;;;4929126;29;20105;-78
2023/06/20 03:11:23;;;;;;;14.35;8.40;;;19.10;68.30;;;;;;4928593;29;20052;-79
2023/06/20 03:13:51;;;;;;;12.95;8.90;;;19.10;68.50;;;;;;4929222;29;20479;-79
2023/06/20 03:16:19;;;;;;;15.93;9.55;;;19.10;68.40;;;;;;4928822;29;20088;-78
2023/06/20 03:18:47;;;;;;;15.52;9.65;;;19.10;68.90;;;;;;4928842;29;20110;-79
2023/06/20 03:21:15;;;;;;;17.27;9.50;;;19.00;69.00;;;;;;4912756;29;21050;-79
2023/06/20 03:23:42;;;;;;;14.32;9.20;;;19.00;68.90;;;;;;4927610;29;20099;-78
2023/06/20 03:26:09;;;;;;;14.75;8.90;;;19.00;69.30;;;;;;4944705;28;20130;-79
2023/06/20 03:28:36;;;;;;;13.93;8.93;;;19.00;69.20;;;;;;4912677;29;20052;-79
2023/06/20 03:31:03;;;;;;;13.13;9.05;;;18.90;69.40;;;;;;4912660;29;20064;-79
2023/06/20 03:33:31;;;;;;;14.03;8.90;;;18.90;69.30;;;;;;4944715;28;20060;-79
2023/06/20 03:36:00;;;;;;;14.80;9.02;;;18.90;69.30;;;;;;4928771;29;20052;-79
2023/06/20 03:38:26;;;;;;;15.18;8.95;;;18.90;69.30;;;;;;4930303;29;20535;-78
2023/06/20 03:40:54;;;;;;;14.10;8.68;;;18.90;69.40;;;;;;4910972;29;20470;-78
2023/06/20 03:43:21;;;;;;;14.63;8.50;;;18.90;69.60;;;;;;4929185;29;20074;-79
2023/06/20 03:45:48;;;;;;;17.93;9.33;;;18.90;69.50;;;;;;4928701;29;20546;-78
2023/06/20 03:48:17;;;;;;;12.88;8.50;;;18.90;69.50;;;;;;4928382;29;20052;-79
2023/06/20 03:50:46;;;;;;;12.93;8.43;;;18.80;69.60;;;;;;4944410;28;20084;-79
2023/06/20 03:53:14;;;;;;;13.32;8.63;;;18.90;69.60;;;;;;4948701;28;20053;-78
2023/06/20 03:55:42;;;;;;;13.82;8.88;;;18.80;69.50;;;;;;4947841;28;20507;-79
2023/06/20 03:58:09;;;;;;;12.67;7.70;;;18.80;69.60;;;;;;4946612;28;20048;-79
2023/06/20 04:00:35;;;;;;;14.02;8.95;;;18.80;69.60;;;;;;4932009;29;20052;-79
2023/06/20 04:03:03;;;;;;;14.90;8.38;;;18.80;69.60;;;;;;4932116;29;20124;-78
2023/06/20 04:05:30;;;;;;;14.75;8.30;;;18.80;69.60;;;;;;4947786;28;20585;-78
2023/06/20 04:08:00;;;;;;;13.23;7.80;;;18.70;69.70;;;;;;4932004;29;20594;-78
2023/06/20 04:10:28;;;;;;;12.13;8.33;;;18.70;69.70;;;;;;4925179;29;20148;-79
2023/06/20 04:12:55;;;;;;;14.63;8.93;;;18.70;69.80;;;;;;4931579;29;20059;-78
2023/06/20 04:15:22;;;;;;;14.35;9.10;;;18.70;69.80;;;;;;4923063;29;20559;-79
2023/06/20 04:17:49;;;;;;;13.45;8.98;;;18.70;69.80;;;;;;4911615;29;20650;-78
2023/06/20 04:20:16;;;;;;;13.02;9.13;;;18.70;69.90;;;;;;4932951;28;20522;-78
2023/06/20 04:22:45;;;;;;;13.20;8.23;;;18.70;69.80;;;;;;4947589;28;20067;-78
2023/06/20 04:25:14;;;;;;;13.98;8.82;;;18.70;69.90;;;;;;4931899;29;20095;-78
2023/06/20 04:27:41;;;;;;;13.93;8.48;;;18.70;69.80;;;;;;4931814;29;20063;-78
2023/06/20 04:30:09;;;;;;;13.57;8.43;;;18.70;69.70;;;;;;4931224;29;20044;-78
2023/06/20 04:32:37;;;;;;;14.75;9.20;;;18.70;69.90;;;;;;4929961;29;20513;-78
2023/06/20 04:35:10;;;;;;;12.73;8.23;;;18.70;69.90;;;;;;4931911;29;20139;-79
2023/06/20 04:37:38;;;;;;;15.20;8.48;;;18.70;70.00;;;;;;4931306;29;20044;-78
2023/06/20 04:40:09;;;;;;;13.73;9.02;;;18.70;70.00;;;;;;4915133;29;20490;-78
2023/06/20 04:42:38;;;;;;;13.07;8.52;;;18.70;70.10;;;;;;4914621;29;20426;-78
2023/06/20 04:45:07;;;;;;;15.50;9.23;;;18.70;70.10;;;;;;4927452;28;20592;-77
2023/06/20 04:47:34;;;;;;;13.20;7.20;;;18.80;70.30;;;;;;4919567;28;20051;-77
2023/06/20 04:50:03;;;;;;;12.65;8.57;;;18.80;70.40;;;;;;4945014;28;20055;-77
2023/06/20 04:52:30;;;;;;;12.40;8.20;;;18.80;70.40;;;;;;4932686;28;20063;-77
2023/06/20 04:55:02;;;;;;;13.52;8.38;;;18.80;70.50;;;;;;4936127;28;20055;-77
2023/06/20 04:57:29;;;;;;;17.75;9.57;;;18.80;70.60;;;;;;4935651;28;20139;-77
2023/06/20 04:59:57;;;;;;;15.13;9.70;;;18.80;70.60;;;;;;4930284;28;20107;-77
2023/06/20 05:02:25;;;;;;;13.82;8.82;;;18.80;70.70;;;;;;4930744;28;20080;-77
2023/06/20 05:04:52;;;;;;;12.95;8.75;;;18.80;70.70;;;;;;4911418;29;20059;-77
2023/06/20 05:07:21;;;;;;;14.32;8.82;;;18.80;70.70;;;;;;4911904;29;20282;-77
2023/06/20 05:09:50;;;;;;;14.80;9.35;;;18.80;70.70;;;;;;4912765;29;20044;-77
2023/06/20 05:12:17;;;;;;;14.17;9.40;;;18.80;70.90;;;;;;4927461;29;20681;-78
2023/06/20 05:14:44;;;;;;;17.48;8.85;;;18.80;70.80;;;;;;4914557;29;20135;-78
2023/06/20 05:17:13;;;;;;;14.38;9.10;;;18.90;70.80;;;;;;4930202;29;20056;-77
2023/06/20 05:19:40;;;;;;;11.65;7.85;;;18.90;70.90;;;;;;4930220;29;20054;-77
2023/06/20 05:22:07;;;;;;;14.05;9.38;;;18.90;70.80;;;;;;4929787;29;20048;-77
2023/06/20 05:24:34;;;;;;;13.73;9.03;;;18.90;70.80;;;;;;4925904;29;20124;-77
2023/06/20 05:27:01;;;;;;;13.80;8.98;;;18.90;70.80;;;;;;4931544;29;20082;-77
2023/06/20 05:29:28;;;;;;;13.98;8.70;;;18.90;70.80;;;;;;4930404;29;20530;-77
2023/06/20 05:31:55;;;;;;;13.50;9.25;;;19.00;70.90;;;;;;4928625;29;20060;-77
2023/06/20 05:34:23;;;;;;;13.90;8.77;;;19.00;70.90;;;;;;4929655;28;20048;-77
2023/06/20 05:36:50;;;;;;;15.23;9.70;;;19.00;71.00;;;;;;4926094;29;20055;-77
2023/06/20 05:39:18;;;;;;;12.55;8.60;;;19.00;70.90;;;;;;4926264;29;20604;-84
2023/06/20 05:41:47;;;;;;;14.07;9.50;;;19.10;71.00;;;;;;4919894;29;20136;-73
2023/06/20 05:44:14;;;;;;;13.68;8.25;;;19.10;70.90;;;;;;4924530;28;20063;-79
2023/06/20 05:46:41;;;;;;;13.88;9.38;;;19.10;71.00;;;;;;4923643;29;20048;-79
2023/06/20 05:49:10;;;;;;;14.97;10.40;;;19.10;70.90;;;;;;4925363;29;20056;-79
2023/06/20 05:51:40;;;;;;;14.82;9.98;;;19.20;70.90;;;;;;4941239;28;20048;-79
2023/06/20 05:54:08;;;;;;;13.95;9.40;;;19.20;71.00;;;;;;4930641;29;20064;-78
2023/06/20 05:56:35;;;;;;;19.73;9.45;;;19.20;71.00;;;;;;4913835;29;20060;-78
2023/06/20 05:59:03;;;;;;;16.92;9.45;;;19.20;71.00;;;;;;4927297;29;20063;-78
2023/06/20 06:01:30;;;;;;;14.37;9.20;;;19.20;70.90;;;;;;4929771;29;20060;-78
2023/06/20 06:03:58;;;;;;;14.85;9.65;;;19.30;71.00;;;;;;4927677;28;20060;-81
2023/06/20 06:06:25;;;;;;;16.30;9.23;;;19.30;71.00;;;;;;4927843;29;20048;-77
2023/06/20 06:08:54;;;;;;;14.32;9.00;;;19.30;71.10;;;;;;4928677;29;20068;-77
2023/06/20 06:11:21;;;;;;;14.25;9.18;;;19.30;71.20;;;;;;4925966;29;20048;-77
2023/06/20 06:13:48;;;;;;;12.87;8.63;;;19.40;71.10;;;;;;4927911;29;20066;-76
2023/06/20 06:16:15;;;;;;;16.20;9.40;;;19.40;71.10;;;;;;4924101;29;20091;-77
2023/06/20 06:18:42;;;;;;;14.85;9.60;;;19.40;71.20;;;;;;4929576;29;20064;-77
2023/06/20 06:21:09;;;;;;;12.68;8.73;;;19.50;71.30;;;;;;4927013;29;20199;-77
2023/06/20 06:23:37;;;;;;;13.85;9.18;;;19.50;71.30;;;;;;4928200;29;20052;-77
2023/06/20 06:26:06;;;;;;;14.53;9.87;;;19.50;71.40;;;;;;4960677;28;20095;-77
2023/06/20 06:28:33;;;;;;;13.52;9.15;;;19.50;71.50;;;;;;4929240;29;20067;-77
2023/06/20 06:31:01;;;;;;;13.55;8.95;;;19.50;71.50;;;;;;4930902;29;20066;-77
2023/06/20 06:33:29;;;;;;;12.77;8.52;;;19.60;71.50;;;;;;4928270;29;20055;-78
2023/06/20 06:35:57;;;;;;;15.80;9.27;;;19.70;71.60;;;;;;4913310;29;20044;-77
2023/06/20 06:38:25;;;;;;;18.23;10.33;;;19.70;71.70;;;;;;4929687;28;20103;-78
2023/06/20 06:40:54;;;;;;;15.85;9.40;;;19.70;71.60;;;;;;4928926;28;20056;-79
2023/06/20 06:43:23;;;;;;;13.18;8.32;;;19.80;71.70;;;;;;4913034;29;20052;-79
2023/06/20 06:45:51;;;;;;;14.05;8.73;;;19.90;71.60;;;;;;4909601;29;20045;-79
2023/06/20 06:48:18;;;;;;;14.70;9.27;;;19.90;71.50;;;;;;4927261;29;20056;-79
2023/06/20 06:50:45;;;;;;;14.00;9.33;;;20.00;71.60;;;;;;4922938;29;20063;-78
2023/06/20 06:53:12;;;;;;;20.58;10.43;;;20.00;71.60;;;;;;4924125;29;20062;-78
2023/06/20 06:55:45;;;;;;;13.77;9.32;;;20.00;71.60;;;;;;4925794;29;20059;-79
2023/06/20 06:58:12;;;;;;;12.60;8.85;;;20.00;71.60;;;;;;4941723;28;20523;-77
2023/06/20 07:00:40;;;;;;;12.27;8.05;;;20.10;71.50;;;;;;4926280;29;20549;-77
2023/06/20 07:03:08;;;;;;;14.27;9.30;;;20.10;71.50;;;;;;4940082;28;20171;-77
2023/06/20 07:05:35;;;;;;;15.05;9.63;;;20.20;71.40;;;;;;4925255;29;20060;-76
2023/06/20 07:08:02;;;;;;;14.05;9.25;;;20.30;71.50;;;;;;4925286;29;20058;-79
2023/06/20 07:10:29;;;;;;;13.18;9.00;;;20.30;71.50;;;;;;4922667;29;20139;-78
2023/06/20 07:12:56;;;;;;;15.40;9.55;;;20.30;71.50;;;;;;4909121;29;20059;-77
2023/06/20 07:15:24;;;;;;;13.17;9.57;;;20.30;71.40;;;;;;4925574;29;21047;-78
2023/06/20 07:17:52;;;;;;;14.65;9.48;;;20.40;71.40;;;;;;4943170;28;20134;-79
2023/06/20 07:20:19;;;;;;;12.23;9.32;;;20.50;71.30;;;;;;4929557;29;20545;-78
2023/06/20 07:22:46;;;;;;;12.65;9.23;;;20.50;71.40;;;;;;4926584;29;20063;-78
2023/06/20 07:25:16;;;;;;;15.20;9.90;;;20.50;71.50;;;;;;4911689;29;20052;-78
2023/06/20 07:27:43;;;;;;;15.33;9.50;;;20.60;71.40;;;;;;4929231;28;20109;-78
2023/06/20 07:30:11;;;;;;;14.23;9.70;;;20.60;71.40;;;;;;4931221;29;20056;-79
2023/06/20 07:32:38;;;;;;;15.50;9.95;;;20.70;71.40;;;;;;4940003;28;20075;-78
2023/06/20 07:35:08;;;;;;;12.55;9.27;;;20.70;71.50;;;;;;4929986;28;20131;-77
2023/06/20 07:37:35;;;;;;;13.48;9.10;;;20.80;71.50;;;;;;4951317;28;20083;-77
2023/06/20 07:40:06;;;;;;;13.87;10.00;;;20.80;71.30;;;;;;4931885;28;20055;-77
2023/06/20 07:42:33;;;;;;;15.20;9.95;;;20.80;71.10;;;;;;4946206;28;20062;-76
2023/06/20 07:45:00;;;;;;;15.43;10.35;;;20.90;71.10;;;;;;4944117;28;20371;-77
2023/06/20 07:47:27;;;;;;;12.88;9.00;;;20.90;71.00;;;;;;4925251;29;20135;-77
2023/06/20 07:49:54;;;;;;;14.20;9.90;;;21.00;70.80;;;;;;4941774;28;20489;-78
2023/06/20 07:52:23;;;;;;;12.77;8.23;;;21.00;70.90;;;;;;4931720;29;20135;-78
2023/06/20 07:54:50;;;;;;;16.23;9.90;;;21.10;70.90;;;;;;4934923;28;20183;-78
2023/06/20 07:57:17;;;;;;;12.93;9.63;;;21.10;70.80;;;;;;4936515;28;20056;-79
2023/06/20 07:59:44;;;;;;;15.77;10.18;;;21.10;70.80;;;;;;4946116;28;20072;-79
2023/06/20 08:02:11;;;;;;;15.25;10.15;;;21.10;70.80;;;;;;4933094;28;20044;-78
2023/06/20 08:04:39;;;;;;;14.40;10.50;;;21.10;70.70;;;;;;4941304;28;20586;-76
2023/06/20 08:07:06;;;;;;;13.82;10.00;;;21.10;70.70;;;;;;4928715;28;20067;-78
2023/06/20 08:09:35;;;;;;;14.15;10.30;;;21.20;70.60;;;;;;4927797;29;20083;-78
2023/06/20 08:12:02;;;;;;;14.23;9.98;;;21.20;70.50;;;;;;4927214;29;20052;-77
2023/06/20 08:14:29;;;;;;;14.43;10.02;;;21.20;70.50;;;;;;4946282;28;20114;-77
2023/06/20 08:16:57;;;;;;;15.43;10.57;;;21.20;70.50;;;;;;4931784;29;20533;-78
2023/06/20 08:19:24;;;;;;;13.27;10.32;;;21.20;70.50;;;;;;4930983;29;20060;-77
2023/06/20 08:21:51;;;;;;;15.60;10.45;;;21.20;70.60;;;;;;4946618;28;20147;-78
2023/06/20 08:24:18;;;;;;;13.82;10.15;;;21.20;70.70;;;;;;4930156;29;20060;-78
2023/06/20 08:26:46;;;;;;;14.98;10.73;;;21.30;70.70;;;;;;4946414;28;20051;-79
2023/06/20 08:29:13;;;;;;;14.57;10.10;;;21.30;70.60;;;;;;4931399;29;20056;-81
2023/06/20 08:31:41;;;;;;;13.93;10.27;;;21.30;70.70;;;;;;4952353;28;20640;-79
2023/06/20 08:34:08;;;;;;;13.65;10.60;;;21.30;70.70;;;;;;4941750;28;20044;-78
2023/06/20 08:36:35;;;;;;;14.10;10.50;;;21.30;70.80;;;;;;4943455;28;20063;-78
2023/06/20 08:39:04;;;;;;;13.27;9.95;;;21.30;70.80;;;;;;4928641;28;21119;-79
2023/06/20 08:41:31;;;;;;;15.23;9.97;;;21.30;70.90;;;;;;4931249;28;20060;-79
2023/06/20 08:43:59;;;;;;;13.68;10.35;;;21.30;71.00;;;;;;4935346;28;20056;-79
2023/06/20 08:46:26;;;;;;;13.38;10.35;;;21.30;71.00;;;;;;4931177;28;20052;-78
2023/06/20 08:48:54;;;;;;;13.98;10.75;;;21.40;71.20;;;;;;4929143;28;20175;-79
2023/06/20 08:51:22;;;;;;;12.60;9.48;;;21.40;71.20;;;;;;4929315;28;20052;-77
2023/06/20 08:53:50;;;;;;;15.20;10.30;;;21.50;71.20;;;;;;4932787;28;20059;-78
2023/06/20 08:56:19;;;;;;;16.23;10.70;;;21.50;71.20;;;;;;4963009;28;20076;-78
2023/06/20 08:58:46;;;;;;;15.23;10.30;;;21.50;71.30;;;;;;4931059;28;20062;-80
2023/06/20 09:01:15;;;;;;;14.07;9.68;;;21.50;71.40;;;;;;4931789;29;20048;-79
2023/06/20 09:03:42;;;;;;;27.70;11.43;;;21.60;71.50;;;;;;4931599;28;20048;-79
2023/06/20 09:06:10;;;;;;;14.13;10.30;;;21.70;71.60;;;;;;4932291;28;20135;-79
2023/06/20 09:08:39;;;;;;;13.07;9.50;;;21.70;71.80;;;;;;4928303;29;20044;-79
2023/06/20 09:11:07;;;;;;;11.57;9.55;;;21.80;71.80;;;;;;4927148;28;20063;-78
2023/06/20 09:13:34;;;;;;;28.77;10.95;;;21.90;71.90;;;;;;4939255;28;20461;-78
2023/06/20 09:16:06;;;;;;;13.75;9.55;;;21.90;71.90;;;;;;4931398;29;20522;-79
2023/06/20 09:18:35;;;;;;;12.40;8.10;;;22.10;71.90;;;;;;4932685;29;20048;-77
2023/06/20 09:21:02;;;;;;;19.38;9.43;;;22.20;71.70;;;;;;4930664;28;20056;-78
2023/06/20 09:23:29;;;;;;;73.75;14.02;;;22.30;71.50;;;;;;4931729;28;20586;-78
2023/06/20 09:25:57;;;;;;;15.80;8.75;;;22.40;70.90;;;;;;4926163;29;20094;-78
2023/06/20 09:28:24;;;;;;;12.90;8.82;;;22.50;70.50;;;;;;4941224;28;20502;-79
2023/06/20 09:30:51;;;;;;;12.93;8.33;;;22.60;70.40;;;;;;4922824;29;20048;-79
2023/06/20 09:33:18;;;;;;;13.48;8.57;;;22.60;70.60;;;;;;4942105;28;20052;-79
2023/06/20 09:35:46;;;;;;;13.05;8.82;;;22.70;70.30;;;;;;4929737;29;20572;-78
2023/06/20 09:38:13;;;;;;;11.05;8.88;;;22.80;69.90;;;;;;4931665;29;20143;-78
2023/06/20 09:40:44;;;;;;;12.75;9.13;;;23.00;69.20;;;;;;4921979;29;20478;-78
2023/06/20 09:43:11;;;;;;;10.77;8.30;;;23.10;68.90;;;;;;4930344;28;20143;-79
2023/06/20 09:45:38;;;;;;;15.18;8.45;;;23.20;68.70;;;;;;4936128;28;20067;-78
2023/06/20 09:48:06;;;;;;;12.23;8.60;;;23.30;68.50;;;;;;4931013;28;20502;-78
2023/06/20 09:50:35;;;;;;;11.88;8.77;;;23.40;68.30;;;;;;4935102;28;20054;-79
2023/06/20 09:53:10;;;;;;;10.30;8.88;;;23.50;67.60;;;;;;4930259;29;20048;-78
2023/06/20 09:55:38;;;;;;;10.37;8.50;;;23.60;67.30;;;;;;4927906;28;20052;-79
2023/06/20 09:58:05;;;;;;;35.95;10.50;;;23.70;67.40;;;;;;4934725;28;20086;-78
2023/06/20 10:00:34;;;;;;;14.98;8.55;;;23.80;67.60;;;;;;4945589;28;20084;-79
2023/06/20 10:03:05;;;;;;;12.77;8.70;;;23.90;67.40;;;;;;4951289;28;20056;-78
2023/06/20 10:05:33;;;;;;;23.08;8.50;;;24.00;67.10;;;;;;4926337;29;20064;-76
2023/06/20 10:08:01;;;;;;;11.13;8.37;;;24.20;66.90;;;;;;4950263;28;20574;-78
2023/06/20 10:10:29;;;;;;;30.90;9.80;;;24.20;66.70;;;;;;4932144;28;20689;-79
2023/06/20 10:12:57;;;;;;;11.95;8.40;;;24.40;66.60;;;;;;4956631;28;20787;-78
2023/06/20 10:15:24;;;;;;;12.13;8.48;;;24.40;66.40;;;;;;4930836;28;20431;-78
2023/06/20 10:17:51;;;;;;;11.10;8.82;;;24.50;66.20;;;;;;4945296;28;20066;-78
2023/06/20 10:20:31;;;;;;;13.60;8.63;;;24.60;65.90;;;;;;4928006;28;20497;-77
2023/06/20 10:22:59;;;;;;;10.20;7.82;;;24.70;65.10;;;;;;4928124;28;20115;-81
2023/06/20 10:25:27;;;;;;;10.10;7.95;;;24.80;64.80;;;;;;4927512;28;20056;-79
2023/06/20 10:28:00;;;;;;;11.32;7.80;;;25.00;64.80;;;;;;4933145;28;20077;-80
2023/06/20 10:30:56;;;;;;;9.25;7.72;;;25.00;64.60;;;;;;4959550;28;20060;-80
2023/06/20 10:33:25;;;;;;;12.43;7.20;;;25.10;64.20;;;;;;4929340;28;20079;-79
2023/06/20 10:35:54;;;;;;;10.80;7.65;;;25.20;63.60;;;;;;4927256;28;20093;-81
2023/06/20 10:38:21;;;;;;;8.85;7.25;;;25.30;63.50;;;;;;4928798;29;20514;-79
2023/06/20 10:40:48;;;;;;;10.07;7.55;;;25.40;63.50;;;;;;4929830;29;20059;-79
2023/06/20 10:43:22;;;;;;;12.90;6.88;;;25.50;63.30;;;;;;4929045;28;20062;-79
2023/06/20 10:45:56;;;;;;;9.53;7.10;;;25.60;63.20;;;;;;4924397;28;20151;-81
2023/06/20 10:48:24;;;;;;;51.53;9.95;;;25.70;62.80;;;;;;4930297;28;20062;-80
2023/06/20 10:50:52;;;;;;;15.90;7.90;;;25.80;62.60;;;;;;4926859;28;20068;-79
2023/06/20 10:53:19;;;;;;;9.35;7.43;;;26.00;62.50;;;;;;4926882;29;20678;-79
2023/06/20 10:55:46;;;;;;;11.18;6.78;;;26.00;62.10;;;;;;4927116;28;20070;-79
2023/06/20 10:58:13;;;;;;;7.80;6.50;;;26.10;61.40;;;;;;4926822;28;20133;-79
2023/06/20 11:00:41;;;;;;;10.73;7.07;;;26.20;60.80;;;;;;4929353;28;20509;-80
2023/06/20 11:03:10;;;;;;;8.60;6.85;;;26.40;60.40;;;;;;4934549;28;20556;-81
2023/06/20 11:05:37;;;;;;;9.68;6.78;;;26.40;60.10;;;;;;4949758;28;20047;-79
2023/06/20 11:08:07;;;;;;;7.38;6.57;;;26.50;58.90;;;;;;4932639;28;20136;-80
2023/06/20 11:10:35;;;;;;;6.80;5.90;;;26.60;59.00;;;;;;4929228;29;20119;-80
2023/06/20 11:13:04;;;;;;;9.07;6.30;;;26.70;58.80;;;;;;4910777;29;20048;-80
2023/06/20 11:15:32;;;;;;;9.48;7.30;;;26.80;59.00;;;;;;4927085;29;20568;-80
2023/06/20 11:18:02;;;;;;;8.60;7.10;;;26.90;58.70;;;;;;4924905;29;20566;-79
2023/06/20 11:20:29;;;;;;;10.57;7.22;;;26.90;57.80;;;;;;4927652;29;20056;-78
2023/06/20 11:22:57;;;;;;;9.30;7.50;;;27.00;57.70;;;;;;4929952;29;20532;-78
2023/06/20 11:25:26;;;;;;;9.15;7.30;;;27.00;57.90;;;;;;4926731;28;20067;-78
2023/06/20 11:27:53;;;;;;;8.43;7.15;;;27.10;58.20;;;;;;4931671;28;20070;-78
2023/06/20 11:30:27;;;;;;;9.18;7.10;;;27.10;58.30;;;;;;4925342;28;20502;-79
2023/06/20 11:33:05;;;;;;;8.93;6.32;;;27.20;57.60;;;;;;4927590;28;20051;-78
2023/06/20 11:35:59;;;;;;;6.67;5.97;;;27.30;57.70;;;;;;4928550;28;20531;-78
2023/06/20 11:38:28;;;;;;;8.63;6.20;;;27.40;57.20;;;;;;4932678;28;20062;-76
2023/06/20 11:41:03;;;;;;;7.85;6.45;;;27.40;57.00;;;;;;4940367;28;20051;-76
2023/06/20 11:43:37;;;;;;;8.38;6.15;;;27.50;57.00;;;;;;4931208;28;20056;-76
2023/06/20 11:46:04;;;;;;;9.98;6.20;;;27.50;56.00;;;;;;4934942;28;20067;-76
2023/06/20 11:48:34;;;;;;;11.83;6.93;;;27.70;55.60;;;;;;4929148;29;20186;-76
2023/06/20 11:51:03;;;;;;;10.10;6.07;;;27.70;55.00;;;;;;4923032;28;20056;-77
2023/06/20 11:53:34;;;;;;;7.65;6.05;;;27.80;54.70;;;;;;4927635;29;20622;-77
2023/06/20 11:56:04;;;;;;;7.43;6.20;;;27.80;55.00;;;;;;4909911;29;20533;-77
2023/06/20 11:58:37;;;;;;;8.30;6.60;;;27.80;55.00;;;;;;4928808;29;20083;-77
2023/06/20 12:01:09;;;;;;;13.40;6.83;;;27.90;55.20;;;;;;4943516;28;20525;-77
2023/06/20 12:03:38;;;;;;;12.85;6.30;;;28.00;55.00;;;;;;4928793;29;20139;-77
2023/06/20 12:06:27;;;;;;;7.50;5.82;;;28.00;54.50;;;;;;4928216;29;20120;-77
2023/06/20 12:08:55;;;;;;;7.18;5.60;;;28.10;54.40;;;;;;4928197;29;20135;-78
2023/06/20 12:11:22;;;;;;;7.32;6.28;;;28.10;53.90;;;;;;4926088;28;20538;-79
2023/06/20 12:13:49;;;;;;;10.23;5.90;;;28.30;53.80;;;;;;4930411;28;20155;-79
2023/06/20 12:16:16;;;;;;;8.25;5.90;;;28.30;52.80;;;;;;4937173;28;20653;-77
2023/06/20 12:18:44;;;;;;;8.27;5.50;;;28.40;53.30;;;;;;4928358;28;20100;-79
2023/06/20 12:21:12;;;;;;;6.90;5.30;;;28.50;52.60;;;;;;4928388;28;20056;-77
2023/06/20 12:23:39;;;;;;;7.18;4.95;;;28.50;52.80;;;;;;4947646;28;20056;-78
2023/06/20 12:26:06;;;;;;;10.00;7.23;;;28.60;51.90;;;;;;4930575;28;20066;-78
2023/06/20 12:28:35;;;;;;;8.02;6.10;;;28.60;50.80;;;;;;4933184;28;20062;-78
2023/06/20 12:31:02;;;;;;;6.35;5.18;;;28.60;50.80;;;;;;4929937;28;20135;-78
2023/06/20 12:33:56;;;;;;;12.30;7.05;;;28.60;51.20;;;;;;4929906;28;20056;-78
2023/06/20 12:36:23;;;;;;;8.45;6.43;;;28.50;52.70;;;;;;4924762;29;20056;-79
2023/06/20 12:38:50;;;;;;;6.57;5.80;;;28.60;53.60;;;;;;4931233;29;20056;-78
2023/06/20 12:41:18;;;;;;;8.68;6.35;;;28.70;52.90;;;;;;4929649;28;20048;-78
2023/06/20 12:43:45;;;;;;;9.32;6.45;;;28.70;53.00;;;;;;4935938;28;20541;-77
2023/06/20 12:46:12;;;;;;;8.95;6.63;;;28.90;52.90;;;;;;4929308;28;20536;-78